sensor_id;sensor_type;location;lat;lon;timestamp;P1;durP1;ratioP1;P2;durP2;ratioP2
12480;SDS011;6305;48.398;11.762;2023-01-10T00:00:21;3.33;;;1.70;;
12480;SDS011;6305;48.398;11.762;2023-01-10T00:02:49;1.53;;;1.43;;
12480;SDS011;6305;48.398;11.762;2023-01-10T00:05:16;2.33;;;1.60;;
12480;SDS011;6305;48.398;11.762;2023-01-10T00:07:44;2.40;;;1.33;;
12480;SDS011;6305;48.398;11.762;2023-01-10T00:10:12;1.95;;;1.50;;
12480;SDS011;6305;48.398;11.762;2023-01-10T00:12:39;4.25;;;1.75;;
12480;SDS011;6305;48.398;11.762;2023-01-10T00:15:24;3.13;;;1.45;;
12480;SDS011;6305;48.398;11.762;2023-01-10T00:17:51;1.77;;;1.58;;
12480;SDS011;6305;48.398;11.762;2023-01-10T00:20:17;2.77;;;1.93;;
12480;SDS011;6305;48.398;11.762;2023-01-10T00:22:45;2.43;;;1.60;;
12480;SDS011;6305;48.398;11.762;2023-01-10T00:25:15;2.25;;;1.90;;
12480;SDS011;6305;48.398;11.762;2023-01-10T00:27:44;2.38;;;1.73;;
12480;SDS011;6305;48.398;11.762;2023-01-10T00:30:12;2.67;;;1.98;;
12480;SDS011;6305;48.398;11.762;2023-01-10T00:32:40;1.75;;;1.63;;
12480;SDS011;6305;48.398;11.762;2023-01-10T00:35:08;2.40;;;1.90;;
12480;SDS011;6305;48.398;11.762;2023-01-10T00:37:36;1.73;;;1.50;;
12480;SDS011;6305;48.398;11.762;2023-01-10T00:40:04;2.58;;;1.85;;
12480;SDS011;6305;48.398;11.762;2023-01-10T00:42:35;3.03;;;2.00;;
12480;SDS011;6305;48.398;11.762;2023-01-10T00:45:19;2.23;;;1.83;;
12480;SDS011;6305;48.398;11.762;2023-01-10T00:47:46;4.15;;;1.80;;
12480;SDS011;6305;48.398;11.762;2023-01-10T00:50:14;2.10;;;1.90;;
12480;SDS011;6305;48.398;11.762;2023-01-10T00:52:41;2.20;;;1.93;;
12480;SDS011;6305;48.398;11.762;2023-01-10T00:55:08;2.53;;;1.80;;
12480;SDS011;6305;48.398;11.762;2023-01-10T00:57:37;3.88;;;2.05;;
12480;SDS011;6305;48.398;11.762;2023-01-10T01:00:04;2.35;;;1.90;;
12480;SDS011;6305;48.398;11.762;2023-01-10T01:02:33;3.50;;;1.83;;
12480;SDS011;6305;48.398;11.762;2023-01-10T01:05:00;3.20;;;2.20;;
12480;SDS011;6305;48.398;11.762;2023-01-10T01:07:27;2.97;;;2.00;;
12480;SDS011;6305;48.398;11.762;2023-01-10T01:09:54;3.08;;;1.85;;
12480;SDS011;6305;48.398;11.762;2023-01-10T01:12:39;2.70;;;1.93;;
12480;SDS011;6305;48.398;11.762;2023-01-10T01:15:06;3.60;;;2.37;;
12480;SDS011;6305;48.398;11.762;2023-01-10T01:17:34;2.45;;;1.80;;
12480;SDS011;6305;48.398;11.762;2023-01-10T01:20:01;2.73;;;2.03;;
12480;SDS011;6305;48.398;11.762;2023-01-10T01:22:28;2.20;;;2.00;;
12480;SDS011;6305;48.398;11.762;2023-01-10T01:24:55;4.20;;;2.00;;
12480;SDS011;6305;48.398;11.762;2023-01-10T01:27:22;2.25;;;1.83;;
12480;SDS011;6305;48.398;11.762;2023-01-10T01:29:50;3.13;;;2.10;;
12480;SDS011;6305;48.398;11.762;2023-01-10T01:32:17;3.22;;;2.30;;
12480;SDS011;6305;48.398;11.762;2023-01-10T01:34:45;2.50;;;1.90;;
12480;SDS011;6305;48.398;11.762;2023-01-10T01:37:13;2.08;;;1.80;;
12480;SDS011;6305;48.398;11.762;2023-01-10T01:39:40;3.88;;;2.08;;
12480;SDS011;6305;48.398;11.762;2023-01-10T01:42:11;3.20;;;2.13;;
12480;SDS011;6305;48.398;11.762;2023-01-10T01:47:45;2.70;;;1.80;;
12480;SDS011;6305;48.398;11.762;2023-01-10T01:50:15;3.23;;;2.20;;
12480;SDS011;6305;48.398;11.762;2023-01-10T01:52:47;3.22;;;1.98;;
12480;SDS011;6305;48.398;11.762;2023-01-10T01:55:16;2.40;;;2.20;;
12480;SDS011;6305;48.398;11.762;2023-01-10T01:57:43;2.50;;;2.00;;
12480;SDS011;6305;48.398;11.762;2023-01-10T02:00:12;3.85;;;2.55;;
12480;SDS011;6305;48.398;11.762;2023-01-10T02:02:41;2.30;;;1.90;;
12480;SDS011;6305;48.398;11.762;2023-01-10T02:05:14;5.77;;;2.47;;
12480;SDS011;6305;48.398;11.762;2023-01-10T02:07:44;4.17;;;2.00;;
12480;SDS011;6305;48.398;11.762;2023-01-10T02:10:13;2.50;;;2.20;;
12480;SDS011;6305;48.398;11.762;2023-01-10T02:12:45;2.10;;;1.90;;
12480;SDS011;6305;48.398;11.762;2023-01-10T02:15:15;2.58;;;1.90;;
12480;SDS011;6305;48.398;11.762;2023-01-10T02:17:44;2.00;;;1.80;;
12480;SDS011;6305;48.398;11.762;2023-01-10T02:20:14;3.05;;;2.10;;
12480;SDS011;6305;48.398;11.762;2023-01-10T02:23:08;2.58;;;1.95;;
12480;SDS011;6305;48.398;11.762;2023-01-10T02:26:07;2.00;;;1.65;;
12480;SDS011;6305;48.398;11.762;2023-01-10T02:32:14;4.00;;;2.00;;
12480;SDS011;6305;48.398;11.762;2023-01-10T02:34:57;1.92;;;1.75;;
12480;SDS011;6305;48.398;11.762;2023-01-10T02:37:31;3.33;;;1.65;;
12480;SDS011;6305;48.398;11.762;2023-01-10T02:40:06;2.77;;;1.83;;
12480;SDS011;6305;48.398;11.762;2023-01-10T02:42:41;4.50;;;1.73;;
12480;SDS011;6305;48.398;11.762;2023-01-10T02:45:13;3.40;;;2.20;;
12480;SDS011;6305;48.398;11.762;2023-01-10T02:47:47;2.95;;;2.05;;
12480;SDS011;6305;48.398;11.762;2023-01-10T02:50:28;2.88;;;1.90;;
12480;SDS011;6305;48.398;11.762;2023-01-10T02:53:04;3.10;;;1.90;;
12480;SDS011;6305;48.398;11.762;2023-01-10T02:55:37;2.97;;;1.77;;
12480;SDS011;6305;48.398;11.762;2023-01-10T02:58:21;2.33;;;1.65;;
12480;SDS011;6305;48.398;11.762;2023-01-10T03:01:00;2.80;;;1.80;;
12480;SDS011;6305;48.398;11.762;2023-01-10T03:03:39;2.72;;;1.83;;
12480;SDS011;6305;48.398;11.762;2023-01-10T03:06:17;2.63;;;1.67;;
12480;SDS011;6305;48.398;11.762;2023-01-10T03:08:50;3.55;;;1.98;;
12480;SDS011;6305;48.398;11.762;2023-01-10T03:11:22;4.05;;;2.03;;
12480;SDS011;6305;48.398;11.762;2023-01-10T03:14:05;2.22;;;1.90;;
12480;SDS011;6305;48.398;11.762;2023-01-10T03:16:36;2.78;;;2.00;;
12480;SDS011;6305;48.398;11.762;2023-01-10T03:19:09;2.53;;;2.00;;
12480;SDS011;6305;48.398;11.762;2023-01-10T03:21:38;3.10;;;1.97;;
12480;SDS011;6305;48.398;11.762;2023-01-10T03:24:09;2.60;;;2.10;;
12480;SDS011;6305;48.398;11.762;2023-01-10T03:26:41;6.00;;;2.05;;
12480;SDS011;6305;48.398;11.762;2023-01-10T03:29:13;3.10;;;2.28;;
12480;SDS011;6305;48.398;11.762;2023-01-10T03:31:46;2.60;;;2.40;;
12480;SDS011;6305;48.398;11.762;2023-01-10T03:34:18;2.47;;;2.27;;
12480;SDS011;6305;48.398;11.762;2023-01-10T03:36:49;2.73;;;2.40;;
12480;SDS011;6305;48.398;11.762;2023-01-10T03:39:20;3.10;;;2.43;;
12480;SDS011;6305;48.398;11.762;2023-01-10T03:41:58;2.90;;;2.60;;
12480;SDS011;6305;48.398;11.762;2023-01-10T03:44:34;3.58;;;2.47;;
12480;SDS011;6305;48.398;11.762;2023-01-10T03:47:12;5.87;;;2.63;;
12480;SDS011;6305;48.398;11.762;2023-01-10T03:49:46;5.23;;;2.60;;
12480;SDS011;6305;48.398;11.762;2023-01-10T03:52:18;4.85;;;2.67;;
12480;SDS011;6305;48.398;11.762;2023-01-10T03:54:46;3.10;;;2.70;;
12480;SDS011;6305;48.398;11.762;2023-01-10T03:57:14;5.45;;;2.80;;
12480;SDS011;6305;48.398;11.762;2023-01-10T03:59:43;5.53;;;2.90;;
12480;SDS011;6305;48.398;11.762;2023-01-10T04:02:10;3.00;;;2.28;;
12480;SDS011;6305;48.398;11.762;2023-01-10T04:04:37;3.35;;;2.83;;
12480;SDS011;6305;48.398;11.762;2023-01-10T04:07:05;4.97;;;2.92;;
12480;SDS011;6305;48.398;11.762;2023-01-10T04:09:32;4.50;;;3.10;;
12480;SDS011;6305;48.398;11.762;2023-01-10T04:11:59;4.07;;;2.80;;
12480;SDS011;6305;48.398;11.762;2023-01-10T04:14:27;3.90;;;2.73;;
12480;SDS011;6305;48.398;11.762;2023-01-10T04:16:59;4.83;;;2.77;;
12480;SDS011;6305;48.398;11.762;2023-01-10T04:19:26;3.77;;;2.87;;
12480;SDS011;6305;48.398;11.762;2023-01-10T04:21:53;5.73;;;3.00;;
12480;SDS011;6305;48.398;11.762;2023-01-10T04:24:22;5.30;;;2.87;;
12480;SDS011;6305;48.398;11.762;2023-01-10T04:26:49;5.10;;;3.10;;
12480;SDS011;6305;48.398;11.762;2023-01-10T04:29:16;4.13;;;3.30;;
12480;SDS011;6305;48.398;11.762;2023-01-10T04:31:43;4.27;;;3.13;;
12480;SDS011;6305;48.398;11.762;2023-01-10T04:34:11;4.80;;;3.50;;
12480;SDS011;6305;48.398;11.762;2023-01-10T04:36:38;4.47;;;3.47;;
12480;SDS011;6305;48.398;11.762;2023-01-10T04:39:05;6.93;;;3.40;;
12480;SDS011;6305;48.398;11.762;2023-01-10T04:41:35;5.00;;;3.50;;
12480;SDS011;6305;48.398;11.762;2023-01-10T04:44:02;5.33;;;3.23;;
12480;SDS011;6305;48.398;11.762;2023-01-10T04:46:29;3.97;;;3.13;;
12480;SDS011;6305;48.398;11.762;2023-01-10T04:48:57;5.60;;;3.60;;
12480;SDS011;6305;48.398;11.762;2023-01-10T04:51:25;5.32;;;3.08;;
12480;SDS011;6305;48.398;11.762;2023-01-10T04:53:53;4.80;;;3.50;;
12480;SDS011;6305;48.398;11.762;2023-01-10T04:56:21;6.10;;;3.40;;
12480;SDS011;6305;48.398;11.762;2023-01-10T04:58:50;3.85;;;3.03;;
12480;SDS011;6305;48.398;11.762;2023-01-10T05:01:18;4.90;;;3.45;;
12480;SDS011;6305;48.398;11.762;2023-01-10T05:03:47;5.97;;;3.70;;
12480;SDS011;6305;48.398;11.762;2023-01-10T05:06:15;5.93;;;3.60;;
12480;SDS011;6305;48.398;11.762;2023-01-10T05:08:43;4.27;;;3.17;;
12480;SDS011;6305;48.398;11.762;2023-01-10T05:11:10;6.10;;;3.90;;
12480;SDS011;6305;48.398;11.762;2023-01-10T05:13:37;5.07;;;3.30;;
12480;SDS011;6305;48.398;11.762;2023-01-10T05:16:06;6.80;;;3.33;;
12480;SDS011;6305;48.398;11.762;2023-01-10T05:18:34;5.80;;;3.40;;
12480;SDS011;6305;48.398;11.762;2023-01-10T05:21:02;4.93;;;3.40;;
12480;SDS011;6305;48.398;11.762;2023-01-10T05:23:34;4.87;;;3.47;;
12480;SDS011;6305;48.398;11.762;2023-01-10T05:26:04;5.05;;;3.50;;
12480;SDS011;6305;48.398;11.762;2023-01-10T05:28:31;5.57;;;3.60;;
12480;SDS011;6305;48.398;11.762;2023-01-10T05:30:59;6.53;;;3.88;;
12480;SDS011;6305;48.398;11.762;2023-01-10T05:33:27;6.40;;;4.03;;
12480;SDS011;6305;48.398;11.762;2023-01-10T05:35:54;5.70;;;4.05;;
12480;SDS011;6305;48.398;11.762;2023-01-10T05:38:25;6.23;;;3.77;;
12480;SDS011;6305;48.398;11.762;2023-01-10T05:40:54;7.13;;;4.10;;
12480;SDS011;6305;48.398;11.762;2023-01-10T05:43:21;4.87;;;3.53;;
12480;SDS011;6305;48.398;11.762;2023-01-10T05:45:48;5.70;;;3.97;;
12480;SDS011;6305;48.398;11.762;2023-01-10T05:48:16;7.68;;;4.28;;
12480;SDS011;6305;48.398;11.762;2023-01-10T05:50:44;6.57;;;4.35;;
12480;SDS011;6305;48.398;11.762;2023-01-10T05:53:12;5.20;;;3.90;;
12480;SDS011;6305;48.398;11.762;2023-01-10T05:55:39;7.33;;;4.43;;
12480;SDS011;6305;48.398;11.762;2023-01-10T05:58:06;6.30;;;4.15;;
12480;SDS011;6305;48.398;11.762;2023-01-10T06:00:35;7.93;;;4.68;;
12480;SDS011;6305;48.398;11.762;2023-01-10T06:03:02;7.60;;;4.57;;
12480;SDS011;6305;48.398;11.762;2023-01-10T06:05:29;7.18;;;4.20;;
12480;SDS011;6305;48.398;11.762;2023-01-10T06:07:58;9.30;;;5.80;;
12480;SDS011;6305;48.398;11.762;2023-01-10T06:10:24;6.93;;;4.93;;
12480;SDS011;6305;48.398;11.762;2023-01-10T06:12:51;7.10;;;4.50;;
12480;SDS011;6305;48.398;11.762;2023-01-10T06:15:18;7.40;;;4.63;;
12480;SDS011;6305;48.398;11.762;2023-01-10T06:17:45;5.37;;;4.17;;
12480;SDS011;6305;48.398;11.762;2023-01-10T06:20:13;6.53;;;4.30;;
12480;SDS011;6305;48.398;11.762;2023-01-10T06:22:44;6.40;;;4.10;;
12480;SDS011;6305;48.398;11.762;2023-01-10T06:25:13;6.20;;;4.30;;
12480;SDS011;6305;48.398;11.762;2023-01-10T06:27:40;7.57;;;4.47;;
12480;SDS011;6305;48.398;11.762;2023-01-10T06:30:09;9.00;;;4.55;;
12480;SDS011;6305;48.398;11.762;2023-01-10T06:32:38;7.67;;;4.83;;
12480;SDS011;6305;48.398;11.762;2023-01-10T06:35:06;7.13;;;4.60;;
12480;SDS011;6305;48.398;11.762;2023-01-10T06:37:35;6.47;;;4.10;;
12480;SDS011;6305;48.398;11.762;2023-01-10T06:40:02;5.73;;;4.17;;
12480;SDS011;6305;48.398;11.762;2023-01-10T06:43:18;7.93;;;4.32;;
12480;SDS011;6305;48.398;11.762;2023-01-10T06:45:45;7.13;;;4.37;;
12480;SDS011;6305;48.398;11.762;2023-01-10T06:52:20;6.53;;;4.27;;
12480;SDS011;6305;48.398;11.762;2023-01-10T06:55:18;6.73;;;4.47;;
12480;SDS011;6305;48.398;11.762;2023-01-10T07:18:14;6.87;;;4.53;;
12480;SDS011;6305;48.398;11.762;2023-01-10T07:20:41;6.93;;;4.43;;
12480;SDS011;6305;48.398;11.762;2023-01-10T07:23:09;9.03;;;4.67;;
12480;SDS011;6305;48.398;11.762;2023-01-10T07:25:36;7.60;;;4.90;;
12480;SDS011;6305;48.398;11.762;2023-01-10T07:28:03;6.83;;;4.33;;
12480;SDS011;6305;48.398;11.762;2023-01-10T07:30:30;6.83;;;4.27;;
12480;SDS011;6305;48.398;11.762;2023-01-10T07:32:57;7.23;;;4.70;;
12480;SDS011;6305;48.398;11.762;2023-01-10T07:35:26;8.07;;;4.97;;
12480;SDS011;6305;48.398;11.762;2023-01-10T07:37:56;7.90;;;4.80;;
12480;SDS011;6305;48.398;11.762;2023-01-10T07:40:23;7.80;;;4.40;;
12480;SDS011;6305;48.398;11.762;2023-01-10T07:42:57;6.27;;;3.93;;
12480;SDS011;6305;48.398;11.762;2023-01-10T07:45:26;6.50;;;4.47;;
12480;SDS011;6305;48.398;11.762;2023-01-10T07:47:54;5.10;;;3.90;;
12480;SDS011;6305;48.398;11.762;2023-01-10T07:50:22;6.67;;;4.27;;
12480;SDS011;6305;48.398;11.762;2023-01-10T07:52:50;9.75;;;4.63;;
12480;SDS011;6305;48.398;11.762;2023-01-10T07:55:17;6.38;;;4.28;;
12480;SDS011;6305;48.398;11.762;2023-01-10T07:57:44;6.17;;;3.90;;
12480;SDS011;6305;48.398;11.762;2023-01-10T08:00:14;5.07;;;3.93;;
12480;SDS011;6305;48.398;11.762;2023-01-10T08:02:45;7.38;;;4.22;;
12480;SDS011;6305;48.398;11.762;2023-01-10T08:05:12;6.38;;;4.30;;
12480;SDS011;6305;48.398;11.762;2023-01-10T08:07:40;6.03;;;4.28;;
12480;SDS011;6305;48.398;11.762;2023-01-10T08:10:09;6.83;;;4.47;;
12480;SDS011;6305;48.398;11.762;2023-01-10T08:12:36;6.17;;;4.23;;
12480;SDS011;6305;48.398;11.762;2023-01-10T08:15:03;6.77;;;5.00;;
12480;SDS011;6305;48.398;11.762;2023-01-10T08:17:31;6.47;;;4.53;;
12480;SDS011;6305;48.398;11.762;2023-01-10T08:19:59;7.90;;;4.90;;
12480;SDS011;6305;48.398;11.762;2023-01-10T08:22:26;7.82;;;5.20;;
12480;SDS011;6305;48.398;11.762;2023-01-10T08:24:56;7.55;;;5.28;;
12480;SDS011;6305;48.398;11.762;2023-01-10T08:27:24;7.97;;;5.27;;
12480;SDS011;6305;48.398;11.762;2023-01-10T08:29:51;7.80;;;5.40;;
12480;SDS011;6305;48.398;11.762;2023-01-10T08:32:18;8.30;;;5.20;;
12480;SDS011;6305;48.398;11.762;2023-01-10T08:34:46;8.63;;;5.37;;
12480;SDS011;6305;48.398;11.762;2023-01-10T08:37:15;10.63;;;5.63;;
12480;SDS011;6305;48.398;11.762;2023-01-10T08:39:42;7.75;;;5.10;;
12480;SDS011;6305;48.398;11.762;2023-01-10T08:42:09;8.00;;;4.80;;
12480;SDS011;6305;48.398;11.762;2023-01-10T08:44:38;7.22;;;4.90;;
12480;SDS011;6305;48.398;11.762;2023-01-10T08:47:05;8.55;;;4.68;;
12480;SDS011;6305;48.398;11.762;2023-01-10T08:49:31;8.65;;;4.53;;
12480;SDS011;6305;48.398;11.762;2023-01-10T08:51:59;7.47;;;4.18;;
12480;SDS011;6305;48.398;11.762;2023-01-10T08:54:27;7.78;;;3.55;;
12480;SDS011;6305;48.398;11.762;2023-01-10T08:56:54;7.03;;;3.33;;
12480;SDS011;6305;48.398;11.762;2023-01-10T08:59:21;5.25;;;3.58;;
12480;SDS011;6305;48.398;11.762;2023-01-10T09:01:49;7.28;;;3.47;;
12480;SDS011;6305;48.398;11.762;2023-01-10T09:04:16;6.72;;;3.53;;
12480;SDS011;6305;48.398;11.762;2023-01-10T09:06:43;9.27;;;3.90;;
12480;SDS011;6305;48.398;11.762;2023-01-10T09:09:10;9.57;;;3.47;;
12480;SDS011;6305;48.398;11.762;2023-01-10T09:11:37;4.57;;;3.13;;
12480;SDS011;6305;48.398;11.762;2023-01-10T09:14:05;7.13;;;3.20;;
12480;SDS011;6305;48.398;11.762;2023-01-10T09:16:32;4.38;;;2.80;;
12480;SDS011;6305;48.398;11.762;2023-01-10T09:19:01;6.50;;;2.72;;
12480;SDS011;6305;48.398;11.762;2023-01-10T09:21:30;5.10;;;2.80;;
12480;SDS011;6305;48.398;11.762;2023-01-10T09:23:58;6.72;;;3.13;;
12480;SDS011;6305;48.398;11.762;2023-01-10T09:26:25;6.18;;;2.70;;
12480;SDS011;6305;48.398;11.762;2023-01-10T09:28:52;6.07;;;2.92;;
12480;SDS011;6305;48.398;11.762;2023-01-10T09:31:19;5.40;;;2.60;;
12480;SDS011;6305;48.398;11.762;2023-01-10T09:33:46;4.93;;;2.65;;
12480;SDS011;6305;48.398;11.762;2023-01-10T09:36:15;4.85;;;2.53;;
12480;SDS011;6305;48.398;11.762;2023-01-10T09:38:42;5.45;;;2.60;;
12480;SDS011;6305;48.398;11.762;2023-01-10T09:41:16;3.47;;;2.53;;
12480;SDS011;6305;48.398;11.762;2023-01-10T09:44:00;8.60;;;2.80;;
12480;SDS011;6305;48.398;11.762;2023-01-10T09:46:36;7.13;;;3.40;;
12480;SDS011;6305;48.398;11.762;2023-01-10T09:49:14;4.32;;;3.22;;
12480;SDS011;6305;48.398;11.762;2023-01-10T09:51:48;3.30;;;3.00;;
12480;SDS011;6305;48.398;11.762;2023-01-10T09:54:17;6.05;;;3.15;;
12480;SDS011;6305;48.398;11.762;2023-01-10T09:56:50;5.68;;;3.05;;
12480;SDS011;6305;48.398;11.762;2023-01-10T09:59:20;5.72;;;2.78;;
12480;SDS011;6305;48.398;11.762;2023-01-10T10:01:50;4.63;;;2.70;;
12480;SDS011;6305;48.398;11.762;2023-01-10T10:04:20;6.30;;;2.83;;
12480;SDS011;6305;48.398;11.762;2023-01-10T10:06:54;3.97;;;2.55;;
12480;SDS011;6305;48.398;11.762;2023-01-10T10:09:22;6.18;;;2.97;;
12480;SDS011;6305;48.398;11.762;2023-01-10T10:11:54;7.05;;;2.28;;
12480;SDS011;6305;48.398;11.762;2023-01-10T10:14:32;4.75;;;2.53;;
12480;SDS011;6305;48.398;11.762;2023-01-10T10:17:14;6.03;;;2.30;;
12480;SDS011;6305;48.398;11.762;2023-01-10T10:19:54;5.30;;;2.60;;
12480;SDS011;6305;48.398;11.762;2023-01-10T10:22:31;5.60;;;2.42;;
12480;SDS011;6305;48.398;11.762;2023-01-10T10:25:09;5.85;;;2.72;;
12480;SDS011;6305;48.398;11.762;2023-01-10T10:27:48;4.43;;;2.85;;
12480;SDS011;6305;48.398;11.762;2023-01-10T10:30:29;7.20;;;2.85;;
12480;SDS011;6305;48.398;11.762;2023-01-10T10:33:13;4.50;;;2.50;;
12480;SDS011;6305;48.398;11.762;2023-01-10T10:35:49;5.35;;;2.50;;
12480;SDS011;6305;48.398;11.762;2023-01-10T10:38:24;6.93;;;2.55;;
12480;SDS011;6305;48.398;11.762;2023-01-10T10:40:55;4.40;;;2.80;;
12480;SDS011;6305;48.398;11.762;2023-01-10T10:43:25;7.93;;;2.67;;
12480;SDS011;6305;48.398;11.762;2023-01-10T10:45:57;4.43;;;2.38;;
12480;SDS011;6305;48.398;11.762;2023-01-10T10:48:31;5.95;;;2.20;;
12480;SDS011;6305;48.398;11.762;2023-01-10T10:51:06;6.10;;;2.15;;
12480;SDS011;6305;48.398;11.762;2023-01-10T10:53:36;4.18;;;2.00;;
12480;SDS011;6305;48.398;11.762;2023-01-10T10:56:04;3.83;;;2.30;;
12480;SDS011;6305;48.398;11.762;2023-01-10T10:58:35;4.35;;;1.83;;
12480;SDS011;6305;48.398;11.762;2023-01-10T11:01:05;5.07;;;2.08;;
12480;SDS011;6305;48.398;11.762;2023-01-10T11:03:34;2.63;;;1.70;;
12480;SDS011;6305;48.398;11.762;2023-01-10T11:06:07;4.80;;;1.60;;
12480;SDS011;6305;48.398;11.762;2023-01-10T11:08:38;4.53;;;1.98;;
12480;SDS011;6305;48.398;11.762;2023-01-10T11:11:09;3.55;;;2.08;;
12480;SDS011;6305;48.398;11.762;2023-01-10T11:13:44;3.30;;;1.85;;
12480;SDS011;6305;48.398;11.762;2023-01-10T11:16:29;3.40;;;1.70;;
12480;SDS011;6305;48.398;11.762;2023-01-10T11:19:14;3.75;;;2.08;;
12480;SDS011;6305;48.398;11.762;2023-01-10T11:21:47;5.18;;;1.65;;
12480;SDS011;6305;48.398;11.762;2023-01-10T11:24:22;4.63;;;1.25;;
12480;SDS011;6305;48.398;11.762;2023-01-10T11:26:51;4.10;;;1.52;;
12480;SDS011;6305;48.398;11.762;2023-01-10T11:29:20;6.72;;;1.50;;
12480;SDS011;6305;48.398;11.762;2023-01-10T11:31:52;4.30;;;1.52;;
12480;SDS011;6305;48.398;11.762;2023-01-10T11:34:21;4.05;;;1.63;;
12480;SDS011;6305;48.398;11.762;2023-01-10T11:36:51;3.67;;;1.67;;
12480;SDS011;6305;48.398;11.762;2023-01-10T11:39:23;4.75;;;1.60;;
12480;SDS011;6305;48.398;11.762;2023-01-10T11:41:51;4.07;;;1.50;;
12480;SDS011;6305;48.398;11.762;2023-01-10T11:44:21;4.13;;;1.58;;
12480;SDS011;6305;48.398;11.762;2023-01-10T11:46:51;7.07;;;1.70;;
12480;SDS011;6305;48.398;11.762;2023-01-10T11:49:25;4.15;;;1.80;;
12480;SDS011;6305;48.398;11.762;2023-01-10T11:51:57;3.05;;;1.50;;
12480;SDS011;6305;48.398;11.762;2023-01-10T11:54:30;5.00;;;1.40;;
12480;SDS011;6305;48.398;11.762;2023-01-10T11:56:59;4.88;;;1.38;;
12480;SDS011;6305;48.398;11.762;2023-01-10T11:59:29;4.18;;;1.48;;
12480;SDS011;6305;48.398;11.762;2023-01-10T12:01:58;6.97;;;1.50;;
12480;SDS011;6305;48.398;11.762;2023-01-10T12:04:30;5.95;;;1.83;;
12480;SDS011;6305;48.398;11.762;2023-01-10T12:07:00;3.35;;;1.40;;
12480;SDS011;6305;48.398;11.762;2023-01-10T12:09:35;3.17;;;1.25;;
12480;SDS011;6305;48.398;11.762;2023-01-10T12:12:14;5.30;;;1.60;;
12480;SDS011;6305;48.398;11.762;2023-01-10T12:14:44;4.97;;;1.55;;
12480;SDS011;6305;48.398;11.762;2023-01-10T12:17:22;2.78;;;1.08;;
12480;SDS011;6305;48.398;11.762;2023-01-10T12:19:55;4.78;;;1.65;;
12480;SDS011;6305;48.398;11.762;2023-01-10T12:22:26;3.58;;;1.38;;
12480;SDS011;6305;48.398;11.762;2023-01-10T12:24:57;3.47;;;1.27;;
12480;SDS011;6305;48.398;11.762;2023-01-10T12:27:26;5.43;;;1.48;;
12480;SDS011;6305;48.398;11.762;2023-01-10T12:29:58;7.22;;;1.50;;
12480;SDS011;6305;48.398;11.762;2023-01-10T12:32:30;4.70;;;1.30;;
12480;SDS011;6305;48.398;11.762;2023-01-10T12:35:05;5.38;;;2.10;;
12480;SDS011;6305;48.398;11.762;2023-01-10T12:37:38;5.57;;;1.60;;
12480;SDS011;6305;48.398;11.762;2023-01-10T12:40:13;7.57;;;1.48;;
12480;SDS011;6305;48.398;11.762;2023-01-10T12:42:51;2.42;;;1.20;;
12480;SDS011;6305;48.398;11.762;2023-01-10T12:45:40;4.22;;;1.42;;
12480;SDS011;6305;48.398;11.762;2023-01-10T12:48:13;3.13;;;0.82;;
12480;SDS011;6305;48.398;11.762;2023-01-10T12:50:46;2.75;;;1.20;;
12480;SDS011;6305;48.398;11.762;2023-01-10T12:53:22;4.50;;;1.38;;
12480;SDS011;6305;48.398;11.762;2023-01-10T12:55:57;3.38;;;0.95;;
12480;SDS011;6305;48.398;11.762;2023-01-10T12:58:34;4.35;;;1.40;;
12480;SDS011;6305;48.398;11.762;2023-01-10T13:01:07;2.88;;;1.20;;
12480;SDS011;6305;48.398;11.762;2023-01-10T13:03:39;4.20;;;1.30;;
12480;SDS011;6305;48.398;11.762;2023-01-10T13:06:09;2.63;;;1.20;;
12480;SDS011;6305;48.398;11.762;2023-01-10T13:08:41;4.45;;;1.30;;
12480;SDS011;6305;48.398;11.762;2023-01-10T13:11:11;4.57;;;1.42;;
12480;SDS011;6305;48.398;11.762;2023-01-10T13:13:41;7.78;;;1.52;;
12480;SDS011;6305;48.398;11.762;2023-01-10T13:16:16;4.68;;;1.30;;
12480;SDS011;6305;48.398;11.762;2023-01-10T13:18:57;3.47;;;1.20;;
12480;SDS011;6305;48.398;11.762;2023-01-10T13:21:27;4.13;;;1.38;;
12480;SDS011;6305;48.398;11.762;2023-01-10T13:23:57;5.47;;;1.55;;
12480;SDS011;6305;48.398;11.762;2023-01-10T13:26:27;4.18;;;1.10;;
12480;SDS011;6305;48.398;11.762;2023-01-10T13:29:13;3.95;;;1.48;;
12480;SDS011;6305;48.398;11.762;2023-01-10T13:31:44;5.47;;;1.83;;
12480;SDS011;6305;48.398;11.762;2023-01-10T13:34:13;4.72;;;1.25;;
12480;SDS011;6305;48.398;11.762;2023-01-10T13:36:42;4.35;;;1.20;;
12480;SDS011;6305;48.398;11.762;2023-01-10T13:39:19;4.18;;;1.58;;
12480;SDS011;6305;48.398;11.762;2023-01-10T13:48:04;4.18;;;1.30;;
12480;SDS011;6305;48.398;11.762;2023-01-10T13:53:40;3.85;;;1.10;;
12480;SDS011;6305;48.398;11.762;2023-01-10T13:56:31;2.38;;;0.95;;
12480;SDS011;6305;48.398;11.762;2023-01-10T13:59:02;3.88;;;1.50;;
12480;SDS011;6305;48.398;11.762;2023-01-10T14:01:49;6.13;;;1.20;;
12480;SDS011;6305;48.398;11.762;2023-01-10T14:04:38;4.00;;;1.40;;
12480;SDS011;6305;48.398;11.762;2023-01-10T14:07:17;2.97;;;1.30;;
12480;SDS011;6305;48.398;11.762;2023-01-10T14:09:52;5.53;;;1.30;;
12480;SDS011;6305;48.398;11.762;2023-01-10T14:12:29;3.75;;;1.20;;
12480;SDS011;6305;48.398;11.762;2023-01-10T14:15:06;2.65;;;1.00;;
12480;SDS011;6305;48.398;11.762;2023-01-10T14:17:54;3.60;;;1.40;;
12480;SDS011;6305;48.398;11.762;2023-01-10T14:20:26;3.90;;;1.15;;
12480;SDS011;6305;48.398;11.762;2023-01-10T14:23:08;1.95;;;1.02;;
12480;SDS011;6305;48.398;11.762;2023-01-10T14:25:45;2.97;;;1.02;;
12480;SDS011;6305;48.398;11.762;2023-01-10T14:28:20;3.33;;;1.30;;
12480;SDS011;6305;48.398;11.762;2023-01-10T14:30:55;2.00;;;1.15;;
12480;SDS011;6305;48.398;11.762;2023-01-10T14:33:27;2.58;;;1.27;;
12480;SDS011;6305;48.398;11.762;2023-01-10T14:35:58;6.63;;;1.90;;
12480;SDS011;6305;48.398;11.762;2023-01-10T14:38:28;5.82;;;1.60;;
12480;SDS011;6305;48.398;11.762;2023-01-10T14:40:59;3.38;;;1.27;;
12480;SDS011;6305;48.398;11.762;2023-01-10T14:43:36;4.25;;;1.20;;
12480;SDS011;6305;48.398;11.762;2023-01-10T14:46:09;6.10;;;1.77;;
12480;SDS011;6305;48.398;11.762;2023-01-10T14:48:45;4.07;;;1.25;;
12480;SDS011;6305;48.398;11.762;2023-01-10T14:51:22;4.68;;;1.33;;
12480;SDS011;6305;48.398;11.762;2023-01-10T14:53:56;3.03;;;1.10;;
12480;SDS011;6305;48.398;11.762;2023-01-10T14:56:26;4.72;;;1.10;;
12480;SDS011;6305;48.398;11.762;2023-01-10T14:58:54;4.75;;;1.58;;
12480;SDS011;6305;48.398;11.762;2023-01-10T15:01:24;4.22;;;1.27;;
12480;SDS011;6305;48.398;11.762;2023-01-10T15:03:52;2.28;;;1.17;;
12480;SDS011;6305;48.398;11.762;2023-01-10T15:06:21;5.50;;;1.75;;
12480;SDS011;6305;48.398;11.762;2023-01-10T15:08:58;3.97;;;1.27;;
12480;SDS011;6305;48.398;11.762;2023-01-10T15:11:31;4.38;;;1.85;;
12480;SDS011;6305;48.398;11.762;2023-01-10T15:14:00;5.60;;;2.25;;
12480;SDS011;6305;48.398;11.762;2023-01-10T15:16:33;4.15;;;1.92;;
12480;SDS011;6305;48.398;11.762;2023-01-10T15:19:03;5.38;;;2.03;;
12480;SDS011;6305;48.398;11.762;2023-01-10T15:21:30;4.85;;;1.50;;
12480;SDS011;6305;48.398;11.762;2023-01-10T15:23:57;4.15;;;1.73;;
12480;SDS011;6305;48.398;11.762;2023-01-10T15:26:25;6.25;;;1.70;;
12480;SDS011;6305;48.398;11.762;2023-01-10T15:29:05;3.70;;;1.40;;
12480;SDS011;6305;48.398;11.762;2023-01-10T15:31:39;3.05;;;1.45;;
12480;SDS011;6305;48.398;11.762;2023-01-10T15:34:07;3.90;;;1.38;;
12480;SDS011;6305;48.398;11.762;2023-01-10T15:36:36;6.00;;;1.95;;
12480;SDS011;6305;48.398;11.762;2023-01-10T15:39:12;6.25;;;1.75;;
12480;SDS011;6305;48.398;11.762;2023-01-10T15:41:45;5.45;;;1.90;;
12480;SDS011;6305;48.398;11.762;2023-01-10T15:47:04;7.60;;;2.13;;
12480;SDS011;6305;48.398;11.762;2023-01-10T15:49:33;3.05;;;1.60;;
12480;SDS011;6305;48.398;11.762;2023-01-10T15:52:00;6.23;;;1.93;;
12480;SDS011;6305;48.398;11.762;2023-01-10T15:54:28;2.57;;;1.80;;